EGBJ METAR and TAF | Updated Today

EGBJ METAR

Gloucestershire Airport

Observation time: 2:29 hr. ago

EGBJ 291720Z 33002KT 9999 FEW020 15/10 Q1007

Need help? Read our tutorial on how to read METARs or read the parsed version below.

Gloucestershire Airport (EGBJ) METAR

  • Weather conditions on Thu, 29 Sep 2022 17:20:00 +0000 (2:29 hr. ago):
  • Present conditions: Dry
  • Clouds: A few at 610 meters
  • Visibility: Greater than 10 km
  • Wind: 330 degrees at 2 knots
  • Temperature: 15 celsius
  • Dew point: 10 celsius
  • Pressure: 1007 millibars
  • Remarks: None


Useful to know...

EGBJ TAF

Gloucestershire Airport

TAF EGBJ 291353Z 2915/2919 35005KT 9999 SCT030
Observation time: 5:56 hr. ago
Need help? Read our tutorial on how to read TAFs or read the parsed version below.

Parsed version of TAF for Gloucestershire Airport (EGBJ)

  • From 29 September at 15:00 UTC, to day 29 of the month at 19:00 UTC
  • Clouds: Scattered at 914 meters
  • Visibility: Greater than 10 km
  • Wind: 350 degrees at 5